Terminal Aerodrome Forecast
Issued by NWS Upton, NY

Home | Current Version | Previous Version | Text Only | Print | Product List | Glossary On
Versions: 1 2 3 4 5 6 7 8 9 10 11 12 13 14 15 16 17 18 19 20 21 22 23
680
FTUS41 KOKX 240218 AAA
TAFISP
TAF AMD
KISP 240218Z 2402/2424 VRB03KT P6SM BKN250
     FM241500 11006KT P6SM SCT120 OVC200
     FM241800 12010KT P6SM BKN100
     FM242200 11010KT P6SM VCSH SCT050 BKN080=

USA.gov is the U.S. government's official web portal to all federal, state and local government web resources and services.